createdAt,value
2022-08-03T00:01:30.400Z,22.10
2022-08-03T00:03:57.340Z,22.20
2022-08-03T00:06:24.232Z,22.10
2022-08-03T00:08:51.179Z,22.00
2022-08-03T00:11:18.134Z,22.00
2022-08-03T00:13:45.105Z,22.10
2022-08-03T00:16:12.195Z,22.10
2022-08-03T00:18:39.460Z,22.10
2022-08-03T00:21:06.414Z,22.10
2022-08-03T00:23:51.616Z,22.10
2022-08-03T00:26:22.880Z,22.10
2022-08-03T00:28:50.710Z,22.20
2022-08-03T00:31:23.098Z,22.10
2022-08-03T00:34:05.202Z,22.10
2022-08-03T00:36:33.172Z,22.10
2022-08-03T00:39:00.055Z,22.20
2022-08-03T00:41:27.061Z,22.20
2022-08-03T00:43:54.133Z,22.20
2022-08-03T00:46:22.572Z,22.20
2022-08-03T00:48:51.034Z,22.20
2022-08-03T00:51:19.188Z,22.20
2022-08-03T00:53:46.233Z,22.10
2022-08-03T00:56:17.695Z,22.20
2022-08-03T00:58:45.948Z,22.20
2022-08-03T01:01:13.658Z,22.10
2022-08-03T01:03:41.268Z,22.10
2022-08-03T01:06:17.819Z,22.00
2022-08-03T01:08:48.667Z,22.10
2022-08-03T01:11:31.080Z,22.00
2022-08-03T01:14:18.745Z,22.00
2022-08-03T01:16:52.666Z,21.80
2022-08-03T01:19:40.969Z,21.80
2022-08-03T01:22:42.275Z,21.90
2022-08-03T01:25:46.423Z,21.90
2022-08-03T01:28:54.841Z,21.90
2022-08-03T01:31:27.583Z,21.80
2022-08-03T01:33:59.479Z,21.70
2022-08-03T01:36:51.126Z,21.80
2022-08-03T01:39:19.790Z,21.80
2022-08-03T01:41:59.605Z,21.70
2022-08-03T01:44:31.036Z,21.60
2022-08-03T01:47:02.405Z,21.70
2022-08-03T01:49:32.034Z,21.70
2022-08-03T01:52:04.992Z,21.70
2022-08-03T01:54:46.579Z,21.60
2022-08-03T01:57:15.057Z,21.60
2022-08-03T01:59:43.286Z,21.60
2022-08-03T02:02:19.515Z,21.70
2022-08-03T02:05:01.926Z,21.60
2022-08-03T02:07:30.534Z,21.60
2022-08-03T02:09:59.667Z,21.50
2022-08-03T02:12:28.824Z,21.60
2022-08-03T02:14:57.033Z,21.50
2022-08-03T02:17:38.474Z,21.50
2022-08-03T02:20:11.725Z,21.60
2022-08-03T02:22:43.056Z,21.50
2022-08-03T02:25:12.183Z,21.50
2022-08-03T02:27:45.487Z,21.60
2022-08-03T02:30:14.448Z,21.60
2022-08-03T02:32:46.194Z,21.50
2022-08-03T02:35:16.131Z,21.50
2022-08-03T02:37:49.771Z,21.40
2022-08-03T02:40:20.293Z,21.40
2022-08-03T02:42:49.561Z,21.40
2022-08-03T02:45:18.435Z,21.50
2022-08-03T02:47:53.903Z,21.50
2022-08-03T02:50:24.588Z,21.50
2022-08-03T02:52:53.344Z,21.50
2022-08-03T02:55:22.643Z,21.50
2022-08-03T02:57:51.535Z,21.50
2022-08-03T03:00:27.190Z,21.50
2022-08-03T03:03:01.564Z,21.50
2022-08-03T03:05:55.589Z,21.50
2022-08-03T03:08:25.736Z,21.50
2022-08-03T03:10:55.505Z,21.50
2022-08-03T03:13:23.060Z,21.50
2022-08-03T03:15:50.991Z,21.60
2022-08-03T03:18:22.237Z,21.60
2022-08-03T03:20:51.992Z,21.50
2022-08-03T03:23:21.957Z,21.50
2022-08-03T03:25:49.536Z,21.60
2022-08-03T03:28:16.891Z,21.50
2022-08-03T03:30:44.389Z,21.60
2022-08-03T03:33:12.516Z,21.50
2022-08-03T03:35:42.417Z,21.60
2022-08-03T03:38:09.592Z,21.60
2022-08-03T03:40:37.597Z,21.50
2022-08-03T03:43:08.571Z,21.50
2022-08-03T03:45:36.048Z,21.60
2022-08-03T03:48:05.458Z,21.60
2022-08-03T03:50:33.984Z,21.50
2022-08-03T03:53:04.750Z,21.60
2022-08-03T03:55:34.516Z,21.60
2022-08-03T03:58:01.564Z,21.60
2022-08-03T04:00:28.537Z,21.70
2022-08-03T04:02:55.487Z,21.70
2022-08-03T04:05:45.609Z,21.60
2022-08-03T04:08:36.815Z,21.70
2022-08-03T04:11:12.918Z,21.70
2022-08-03T04:14:18.010Z,21.80
2022-08-03T04:16:53.568Z,21.80
2022-08-03T04:19:28.361Z,21.90
2022-08-03T04:22:00.037Z,21.90
2022-08-03T04:24:50.877Z,21.90
2022-08-03T04:27:22.121Z,22.00
2022-08-03T04:29:53.208Z,22.10
2022-08-03T04:32:23.689Z,22.10
2022-08-03T04:34:51.044Z,22.10
2022-08-03T04:37:33.381Z,22.20
2022-08-03T04:40:03.136Z,22.10
2022-08-03T04:42:33.289Z,22.10
2022-08-03T04:45:02.739Z,22.10
2022-08-03T04:47:33.300Z,22.00
2022-08-03T04:50:09.169Z,22.10
2022-08-03T04:52:39.883Z,22.10
2022-08-03T04:55:07.370Z,22.10
2022-08-03T04:57:34.348Z,22.10
2022-08-03T05:00:03.619Z,22.10
2022-08-03T05:02:31.936Z,22.10
2022-08-03T05:04:59.383Z,22.20
2022-08-03T05:07:26.439Z,22.00
2022-08-03T05:10:03.738Z,22.10
2022-08-03T05:12:33.837Z,22.00
2022-08-03T05:15:01.268Z,22.10
2022-08-03T05:17:28.698Z,22.20
2022-08-03T05:19:56.175Z,22.20
2022-08-03T05:22:23.604Z,22.20
2022-08-03T05:24:50.662Z,22.30
2022-08-03T05:27:19.479Z,22.60
2022-08-03T05:29:47.291Z,23.00
2022-08-03T05:32:14.528Z,23.30
2022-08-03T05:34:41.630Z,23.50
2022-08-03T05:37:09.016Z,23.80
2022-08-03T05:39:36.334Z,24.20
2022-08-03T05:42:03.600Z,24.70
2022-08-03T05:44:31.789Z,25.10
2022-08-03T05:46:59.510Z,25.70
2022-08-03T05:49:26.579Z,26.10
2022-08-03T05:51:59.964Z,26.70
2022-08-03T05:54:56.470Z,27.00
2022-08-03T05:57:27.698Z,27.40
2022-08-03T05:59:58.666Z,28.00
2022-08-03T06:02:28.830Z,28.40
2022-08-03T06:04:55.809Z,29.00
2022-08-03T06:07:22.900Z,29.50
2022-08-03T06:10:37.650Z,30.00
2022-08-03T06:12:36.887Z,30.30
2022-08-03T06:15:07.811Z,31.00
2022-08-03T06:17:46.082Z,31.40
2022-08-03T06:20:13.215Z,31.80
2022-08-03T06:22:44.501Z,31.70
2022-08-03T06:25:19.428Z,31.70
2022-08-03T06:27:48.602Z,31.50
2022-08-03T06:30:21.016Z,31.10
2022-08-03T06:32:51.808Z,30.70
2022-08-03T06:35:20.043Z,30.50
2022-08-03T06:37:48.755Z,30.50
2022-08-03T06:40:32.182Z,30.50
2022-08-03T06:43:01.002Z,30.50
2022-08-03T06:45:32.116Z,30.10
2022-08-03T06:48:03.775Z,29.80
2022-08-03T06:50:31.199Z,29.60
2022-08-03T06:52:58.579Z,29.60
2022-08-03T06:55:25.487Z,29.50
2022-08-03T06:57:52.467Z,29.50
2022-08-03T07:00:19.751Z,29.50
2022-08-03T07:02:46.794Z,29.60
2022-08-03T07:05:14.699Z,29.40
2022-08-03T07:07:41.644Z,29.00
2022-08-03T07:10:09.001Z,28.80
2022-08-03T07:12:37.112Z,28.80
2022-08-03T07:15:20.603Z,28.70
2022-08-03T07:18:07.175Z,28.70
2022-08-03T07:20:34.264Z,28.60
2022-08-03T07:23:01.237Z,28.50
2022-08-03T07:25:28.231Z,28.40
2022-08-03T07:27:55.172Z,28.20
2022-08-03T07:30:23.430Z,28.00
2022-08-03T07:32:50.866Z,27.90
2022-08-03T07:35:24.416Z,27.80
2022-08-03T07:37:54.473Z,27.80
2022-08-03T07:40:22.256Z,27.90
2022-08-03T07:42:52.035Z,27.80
2022-08-03T07:45:23.412Z,27.80
2022-08-03T07:47:53.676Z,27.70
2022-08-03T07:50:21.814Z,27.70
2022-08-03T07:52:53.159Z,27.90
2022-08-03T07:55:23.347Z,28.00
2022-08-03T07:58:19.213Z,28.20
2022-08-03T08:00:55.483Z,28.30
2022-08-03T08:03:22.402Z,28.30
2022-08-03T08:05:50.068Z,28.30
2022-08-03T08:08:17.015Z,28.10
2022-08-03T08:10:57.895Z,28.20
2022-08-03T08:13:25.690Z,28.30
2022-08-03T08:15:52.603Z,28.50
2022-08-03T08:18:19.471Z,28.80
2022-08-03T08:20:49.488Z,28.90
2022-08-03T08:23:37.879Z,28.70
2022-08-03T08:26:10.101Z,28.60
2022-08-03T08:28:37.061Z,28.50
2022-08-03T08:31:05.504Z,28.40
2022-08-03T08:34:01.497Z,28.10
2022-08-03T08:36:21.706Z,27.90
2022-08-03T08:38:48.711Z,27.70
2022-08-03T08:41:16.034Z,27.70
2022-08-03T08:43:43.488Z,27.50
2022-08-03T08:46:22.810Z,27.40
2022-08-03T08:48:55.245Z,27.50
2022-08-03T08:51:24.669Z,27.80
2022-08-03T08:54:12.767Z,28.60
2022-08-03T08:56:39.895Z,29.60
2022-08-03T08:59:07.242Z,30.10
2022-08-03T09:01:36.685Z,30.70
2022-08-03T09:04:06.867Z,31.30
2022-08-03T09:06:33.936Z,31.60
2022-08-03T09:09:00.933Z,32.00
2022-08-03T09:11:52.551Z,32.20
2022-08-03T09:14:37.132Z,32.30
2022-08-03T09:17:03.475Z,32.20
2022-08-03T09:19:32.277Z,32.20
2022-08-03T09:22:16.818Z,32.50
2022-08-03T09:25:22.850Z,32.60
2022-08-03T09:27:47.513Z,32.90
2022-08-03T09:30:33.379Z,33.30
2022-08-03T09:33:08.322Z,33.50
2022-08-03T09:35:54.203Z,33.70
2022-08-03T09:38:28.134Z,33.60
2022-08-03T09:41:00.095Z,33.50
2022-08-03T09:43:28.181Z,33.50
2022-08-03T09:46:04.322Z,33.50
2022-08-03T09:48:31.691Z,33.60
2022-08-03T09:51:14.218Z,33.50
2022-08-03T09:53:58.792Z,33.40
2022-08-03T09:56:42.884Z,33.10
2022-08-03T09:59:11.524Z,32.50
2022-08-03T10:01:42.477Z,32.40
2022-08-03T10:04:17.289Z,32.30
2022-08-03T10:06:45.990Z,32.50
2022-08-03T10:09:16.294Z,32.50
2022-08-03T10:11:44.220Z,32.50
2022-08-03T10:14:19.623Z,32.40
2022-08-03T10:16:48.277Z,32.50
2022-08-03T10:19:15.785Z,32.40
2022-08-03T10:21:49.524Z,32.30
2022-08-03T10:24:20.246Z,32.20
2022-08-03T10:26:49.998Z,31.90
2022-08-03T10:29:24.974Z,31.70
2022-08-03T10:31:58.429Z,31.50
2022-08-03T10:34:35.582Z,31.50
2022-08-03T10:37:07.731Z,31.30
2022-08-03T10:39:36.203Z,31.20
2022-08-03T10:42:04.303Z,31.00
2022-08-03T10:44:40.272Z,30.80
2022-08-03T10:47:10.592Z,30.60
2022-08-03T10:49:38.366Z,30.50
2022-08-03T10:52:13.896Z,30.30
2022-08-03T10:55:12.037Z,30.20
2022-08-03T10:57:47.430Z,30.10
2022-08-03T11:00:22.408Z,29.90
2022-08-03T11:03:09.408Z,29.70
2022-08-03T11:05:44.398Z,29.60
2022-08-03T11:08:37.814Z,29.50
2022-08-03T11:11:20.072Z,29.30
2022-08-03T11:14:19.907Z,29.20
2022-08-03T11:17:05.870Z,29.10
2022-08-03T11:19:58.227Z,29.00
2022-08-03T11:22:28.267Z,29.00
2022-08-03T11:24:56.373Z,28.90
2022-08-03T11:27:36.097Z,28.80
2022-08-03T11:30:10.621Z,28.70
2022-08-03T11:32:40.504Z,28.50
2022-08-03T11:35:23.818Z,28.40
2022-08-03T11:38:05.818Z,28.20
2022-08-03T11:40:40.109Z,28.20
2022-08-03T11:43:31.356Z,28.10
2022-08-03T11:46:03.633Z,28.00
2022-08-03T11:48:38.689Z,27.80
2022-08-03T11:51:18.652Z,27.70
2022-08-03T11:53:47.875Z,27.70
2022-08-03T11:56:14.823Z,27.80
2022-08-03T11:59:02.757Z,27.70
2022-08-03T12:01:37.632Z,27.80
2022-08-03T12:04:05.492Z,27.70
2022-08-03T12:06:52.485Z,27.60
2022-08-03T12:09:21.276Z,27.50
2022-08-03T12:11:56.156Z,27.50
2022-08-03T12:14:49.908Z,27.40
2022-08-03T12:17:16.371Z,27.40
2022-08-03T12:19:44.066Z,27.40
2022-08-03T12:22:11.094Z,27.40
2022-08-03T12:24:42.772Z,27.30
2022-08-03T12:27:09.942Z,27.20
2022-08-03T12:29:37.426Z,27.10
2022-08-03T12:32:04.564Z,27.10
2022-08-03T12:34:48.352Z,27.00
2022-08-03T12:37:29.244Z,27.00
2022-08-03T12:40:05.240Z,27.00
2022-08-03T12:42:38.381Z,27.00
2022-08-03T12:45:26.432Z,26.90
2022-08-03T12:48:01.332Z,26.90
2022-08-03T12:50:32.246Z,27.00
2022-08-03T12:53:00.751Z,26.90
2022-08-03T12:55:56.221Z,26.80
2022-08-03T12:58:34.041Z,26.80
2022-08-03T13:01:05.049Z,26.80
2022-08-03T13:03:50.437Z,26.80
2022-08-03T13:06:25.220Z,26.80
2022-08-03T13:09:12.385Z,26.70
2022-08-03T13:11:57.849Z,26.70
2022-08-03T13:14:26.240Z,26.60
2022-08-03T13:16:53.163Z,26.50
2022-08-03T13:19:20.191Z,26.60
2022-08-03T13:22:03.056Z,26.50
2022-08-03T13:24:32.349Z,26.50
2022-08-03T13:27:00.466Z,26.50
2022-08-03T13:29:27.419Z,26.40
2022-08-03T13:31:54.382Z,26.50
2022-08-03T13:34:23.796Z,26.40
2022-08-03T13:37:09.383Z,26.50
2022-08-03T13:39:58.223Z,26.50
2022-08-03T13:42:24.683Z,26.40
2022-08-03T13:44:51.727Z,26.40
2022-08-03T13:47:20.134Z,26.40
2022-08-03T13:50:00.026Z,26.40
2022-08-03T13:52:33.321Z,26.40
2022-08-03T13:55:01.231Z,26.30
2022-08-03T13:58:03.515Z,26.30
2022-08-03T14:00:27.200Z,26.20
2022-08-03T14:03:02.903Z,26.10
2022-08-03T14:05:33.157Z,26.20
2022-08-03T14:08:05.776Z,26.20
2022-08-03T14:10:37.730Z,26.20
2022-08-03T14:13:05.149Z,26.00
2022-08-03T14:15:32.195Z,26.10
2022-08-03T14:18:04.524Z,26.10
2022-08-03T14:20:37.177Z,26.10
2022-08-03T14:23:07.047Z,26.10
2022-08-03T14:25:44.496Z,26.10
2022-08-03T14:28:18.712Z,26.10
2022-08-03T14:30:46.095Z,26.00
2022-08-03T14:33:12.981Z,26.10
2022-08-03T14:35:40.023Z,26.00
2022-08-03T14:38:07.035Z,26.10
2022-08-03T14:40:34.042Z,26.10
2022-08-03T14:43:01.085Z,26.10
2022-08-03T14:45:28.171Z,26.10
2022-08-03T14:50:34.601Z,26.10
2022-08-03T14:50:46.757Z,26.10
2022-08-03T14:53:17.752Z,26.10
2022-08-03T14:55:49.694Z,26.10
2022-08-03T14:58:20.838Z,26.00
2022-08-03T15:00:48.796Z,26.00
2022-08-03T15:03:17.280Z,26.10
2022-08-03T15:05:45.023Z,26.00
2022-08-03T15:08:11.948Z,26.00
2022-08-03T15:10:44.133Z,26.00
2022-08-03T15:13:13.485Z,26.00
2022-08-03T15:15:40.782Z,26.00
2022-08-03T15:18:08.166Z,25.90
2022-08-03T15:20:44.934Z,26.00
2022-08-03T15:23:14.381Z,26.00
2022-08-03T15:26:32.048Z,26.00
2022-08-03T15:28:29.586Z,26.00
2022-08-03T15:30:56.612Z,26.00
2022-08-03T15:33:23.512Z,26.00
2022-08-03T15:35:50.493Z,25.90
2022-08-03T15:38:17.751Z,25.90
2022-08-03T17:08:10.551Z,25.60
2022-08-03T17:10:41.720Z,25.60
2022-08-03T17:13:11.603Z,25.60
2022-08-03T17:16:01.073Z,25.50
2022-08-03T17:18:37.393Z,25.50
2022-08-03T17:21:10.515Z,25.50
2022-08-03T17:23:45.724Z,25.40
2022-08-03T17:26:21.137Z,25.50
2022-08-03T17:28:57.653Z,25.50
2022-08-03T17:31:31.914Z,25.40
2022-08-03T17:34:02.117Z,25.40
2022-08-03T17:39:30.776Z,25.40
2022-08-03T17:42:05.383Z,25.50
2022-08-03T17:44:53.444Z,25.40
2022-08-03T17:47:21.440Z,25.40
2022-08-03T17:49:48.655Z,25.40
2022-08-03T17:52:21.973Z,25.40
2022-08-03T17:55:55.587Z,25.50
2022-08-03T17:58:03.555Z,25.40
2022-08-03T18:00:52.129Z,25.40
2022-08-03T18:03:22.135Z,25.40
2022-08-03T18:06:11.682Z,25.40
2022-08-03T18:08:50.571Z,25.30
2022-08-03T18:11:22.173Z,25.30
2022-08-03T18:14:23.950Z,25.30
2022-08-03T18:17:01.810Z,25.20
2022-08-03T18:20:02.185Z,25.20
2022-08-03T18:22:20.665Z,25.20
2022-08-03T18:24:49.792Z,25.10
2022-08-03T18:27:17.244Z,25.10
2022-08-03T18:29:47.093Z,25.00
2022-08-03T18:32:16.864Z,25.10
2022-08-03T18:34:54.219Z,24.90
2022-08-03T18:37:25.620Z,24.90
2022-08-03T18:39:58.129Z,24.90
2022-08-03T18:42:26.288Z,25.00
2022-08-03T18:44:55.854Z,24.80
2022-08-03T18:47:58.298Z,24.90
2022-08-03T18:50:29.366Z,24.80
2022-08-03T18:53:16.363Z,24.80
2022-08-03T18:56:26.774Z,24.70
2022-08-03T18:59:30.146Z,24.70
2022-08-03T19:02:09.273Z,24.70
2022-08-03T19:04:46.544Z,24.60
2022-08-03T19:10:09.868Z,24.50
2022-08-03T19:12:50.431Z,24.50
2022-08-03T19:15:36.125Z,24.60
2022-08-03T19:18:08.913Z,24.60
2022-08-03T19:20:38.347Z,24.50
2022-08-03T19:23:06.649Z,24.50
2022-08-03T19:25:38.707Z,24.50
2022-08-03T19:28:09.174Z,24.50
2022-08-03T19:30:38.985Z,24.40
2022-08-03T19:33:07.888Z,24.40
2022-08-03T19:35:52.257Z,24.40
2022-08-03T19:38:28.486Z,24.40
2022-08-03T19:41:03.054Z,24.30
2022-08-03T19:43:32.931Z,24.40
2022-08-03T19:46:16.986Z,24.30
2022-08-03T19:48:54.039Z,24.30
2022-08-03T19:51:26.979Z,24.10
2022-08-03T19:54:16.131Z,24.10
2022-08-03T19:56:48.643Z,24.00
2022-08-03T19:59:16.662Z,24.00
2022-08-03T20:01:50.218Z,24.00
2022-08-03T20:04:18.597Z,24.10
2022-08-03T20:06:49.665Z,23.90
2022-08-03T20:09:18.166Z,24.00
2022-08-03T20:11:46.710Z,24.00
2022-08-03T20:14:20.786Z,23.90
2022-08-03T20:16:54.025Z,24.00
2022-08-03T20:19:21.527Z,24.00
2022-08-03T20:21:49.939Z,24.00
2022-08-03T20:24:25.051Z,23.90
2022-08-03T20:26:58.156Z,23.80
2022-08-03T20:30:05.227Z,23.90
2022-08-03T20:32:24.438Z,23.90
2022-08-03T20:34:52.014Z,23.90
2022-08-03T20:47:04.058Z,24.00
2022-08-03T20:49:31.448Z,23.90
2022-08-03T20:52:18.783Z,23.90
2022-08-03T20:54:46.438Z,23.80
2022-08-03T20:57:13.815Z,23.80
2022-08-03T20:59:50.271Z,23.80
2022-08-03T21:02:30.323Z,23.70
2022-08-03T21:05:09.156Z,23.50
2022-08-03T21:08:06.411Z,23.60
2022-08-03T21:10:38.162Z,23.50
2022-08-03T21:13:01.364Z,24.60
2022-08-03T21:13:17.668Z,23.60
2022-08-03T21:16:01.184Z,23.40
2022-08-03T21:18:42.719Z,23.50
2022-08-03T21:21:13.625Z,23.40
2022-08-03T21:23:49.129Z,23.40
2022-08-03T21:26:22.337Z,23.30
2022-08-03T21:28:50.783Z,23.40
2022-08-03T21:31:19.831Z,23.30
2022-08-03T21:34:03.227Z,23.30
2022-08-03T21:36:32.340Z,23.30
2022-08-03T21:39:00.747Z,23.30
2022-08-03T21:41:31.060Z,23.20
2022-08-03T21:43:58.101Z,23.30
2022-08-03T21:46:27.389Z,23.30
2022-08-03T21:50:07.810Z,23.40
2022-08-03T21:51:49.439Z,23.20
2022-08-03T21:54:19.040Z,23.20
2022-08-03T21:56:47.747Z,23.20
2022-08-03T21:59:19.984Z,23.20
2022-08-03T22:01:55.372Z,23.20
2022-08-03T22:04:50.222Z,23.20
2022-08-03T22:07:13.753Z,23.10
2022-08-03T22:09:50.899Z,23.10
2022-08-03T22:12:24.415Z,23.20
2022-08-03T22:15:00.208Z,23.00
2022-08-03T22:17:55.037Z,23.00
2022-08-03T22:20:20.074Z,23.00
2022-08-03T22:22:55.375Z,23.00
2022-08-03T22:25:28.943Z,23.00
2022-08-03T22:27:57.031Z,23.00
2022-08-03T22:30:24.036Z,23.00
2022-08-03T22:32:53.819Z,23.00
2022-08-03T22:35:21.570Z,23.00
2022-08-03T22:37:54.485Z,22.90
2022-08-03T22:40:21.574Z,22.90
2022-08-03T22:42:50.511Z,23.00
2022-08-03T22:46:05.897Z,22.90
2022-08-03T22:48:08.000Z,22.90
2022-08-03T22:50:35.651Z,22.80
2022-08-03T22:53:02.597Z,22.90
2022-08-03T22:55:30.550Z,22.80
2022-08-03T22:57:57.442Z,22.90
2022-08-03T23:00:24.882Z,22.90
2022-08-03T23:02:54.697Z,22.90
2022-08-03T23:06:00.239Z,22.80
2022-08-03T23:08:14.705Z,22.70
2022-08-03T23:10:47.157Z,22.80
2022-08-03T23:13:17.653Z,22.70
2022-08-03T23:15:54.743Z,22.70
2022-08-03T23:18:23.325Z,22.60
2022-08-03T23:20:54.564Z,22.70
2022-08-03T23:23:23.634Z,22.70
2022-08-03T23:25:51.937Z,22.60
2022-08-03T23:28:19.175Z,22.70
2022-08-03T23:30:48.865Z,22.60
2022-08-03T23:33:17.452Z,22.70
2022-08-03T23:36:27.787Z,22.70
2022-08-03T23:38:44.715Z,22.60
2022-08-03T23:41:13.482Z,22.60
2022-08-03T23:43:51.264Z,22.60
2022-08-03T23:46:22.656Z,22.70
2022-08-03T23:48:51.045Z,22.60
2022-08-03T23:51:29.870Z,22.60
2022-08-03T23:54:31.534Z,22.60
2022-08-03T23:57:04.521Z,22.60
2022-08-03T23:59:37.307Z,22.60
